Cumberland, MD

11:37 AM EST on February 09, 2016 (GMT -0500)
Mountain View | | Change Station
CLOSE
Current Station
Personal Weather Station
Location: Cumberland, MD
Elevation: 750 ft
Nearby Weather Stations
Active Advisory: Winter Weather Advisory Active Notice: Public Information Statement

Elev 750 ft 39.63 °N, 78.75 °W | Updated 59 seconds ago

Scattered Clouds
Scattered Clouds
34.7 °F
Feels Like 32 °F
N
3.6
Wind Variable Wind from SSW
Gusts 4.9 mph

Today
High -- | Low -- °F
--% Chance of Precip.
Yesterday
High -- | Low -- °F
Precip. -- in
Pressure 29.62 in
Visibility 10.0 miles
Clouds Scattered Clouds 4800 ft
Windchill 32 °F
Dew Point 22 °F
Humidity 60%
Rainfall 0.11 in
Snow Depth Not available.
7:15 AM 5:43 PM
New Moon, 2% visible
METAR KCBE 091633Z AUTO 27008KT 10SM SCT048 01/M05 A2962 RMK AO1
Pressure 29.62 in
Visibility 10.0 miles
Clouds Scattered Clouds 4800 ft
Windchill 32 °F
Dew Point 22 °F
Humidity 60%
Rainfall 0.11 in
Snow Depth Not available.
7:15 AM 5:43 PM
New Moon, 2% visible
METAR KCBE 091633Z AUTO 27008KT 10SM SCT048 01/M05 A2962 RMK AO1

10-Day Weather Forecast

Almanac

Astronomy

Feb. 09, 2016 Rise Set
Actual Time
Civil Twilight
Nautical Twilight
Astronomical Twilight
Moon
Length of Visible Light
Length of Day
Tomorrow will be .
, % of the Moon is Illuminated

Today's Extremes

State Highs State Lows

Community

WunderPhotos

Upload Photos

1,891,630 photos uploaded!

WunderBlog® & News

Nearby

Air Quality

  Air Quality AQ Index Pollutant
Not available.

Snow Depth

Station Depth Elevation

Earthquake Activity

City Distance Mag. Time & Date
Minimum magnitude displayed is 2.5.

Coastal Water Temperatures

Place Temperature

Stations

Nearby Weather Stations

Station Location Temp. Windchill Dew Point Humidity Wind Precip. Elev Updated Type
                   

Watches & Warnings

Winter Weather Advisory
Issued: 7:55 AM EST Feb. 9, 2016 – National Weather Service

... Winter Weather Advisory remains in effect until midnight tonight...

* precipitation type... snow.

* Accumulations... snow accumulation of 2 to 4 inches.

* Timing... through this evening.

* Impacts... snow covered roads and travel disruptions.

* Winds... west 5 to 15 mph.

* Temperatures... in the upper 20s.

Precautionary/preparedness actions...

A Winter Weather Advisory for snow means that periods of snow
will cause primarily travel difficulties. Be prepared for snow
covered roads and limited visibilities... and use caution while
driving.